Time;durP1;ratioP1;P1;durP2;ratioP2;P2;SDS_P1;SDS_P2;PMS_P1;PMS_P2;Temp;Humidity;BMP_temperature;BMP_pressure;BME280_temperature;BME280_humidity;BME280_pressure;Samples;Min_cycle;Max_cycle;Signal;HPM_P1;HPM_P2
2021/11/12 00:03:05;;;;;;;51.28;46.60;;;3.40;92.00;;;;;;5027061;28;20721;-73
2021/11/12 00:13:46;;;;;;;48.00;43.65;;;3.00;93.30;;;;;;5028599;28;20304;-73
2021/11/12 00:16:13;;;;;;;46.40;42.42;;;2.90;93.50;;;;;;5028575;28;20316;-73
2021/11/12 00:18:40;;;;;;;46.45;42.35;;;2.90;93.30;;;;;;5029455;28;20605;-73
2021/11/12 00:21:08;;;;;;;44.85;41.15;;;3.00;92.70;;;;;;5028762;28;20814;-73
2021/11/12 00:23:37;;;;;;;44.83;40.97;;;2.90;92.90;;;;;;5028199;28;20839;-74
2021/11/12 00:26:04;;;;;;;46.35;42.25;;;2.90;93.40;;;;;;5023525;28;20220;-73
2021/11/12 00:28:35;;;;;;;47.45;43.13;;;3.00;93.50;;;;;;5028903;28;20290;-75
2021/11/12 00:31:06;;;;;;;50.03;45.28;;;3.00;93.50;;;;;;5027921;28;20294;-73
2021/11/12 00:33:57;;;;;;;49.75;45.10;;;3.10;93.00;;;;;;5027481;28;21028;-73
2021/11/12 00:36:36;;;;;;;46.33;42.10;;;3.10;92.70;;;;;;5021040;28;20196;-73
2021/11/12 00:39:10;;;;;;;48.03;43.60;;;2.90;93.10;;;;;;5028051;28;20214;-73
2021/11/12 00:41:39;;;;;;;48.00;43.75;;;3.00;93.20;;;;;;5022355;28;20225;-73
2021/11/12 00:44:17;;;;;;;50.20;45.60;;;3.00;93.00;;;;;;5027213;28;20314;-73
2021/11/12 00:46:49;;;;;;;49.00;44.58;;;3.00;92.70;;;;;;5023059;28;20278;-74
2021/11/12 00:49:19;;;;;;;50.45;45.75;;;3.10;92.30;;;;;;5018223;28;20212;-73
2021/11/12 00:51:50;;;;;;;53.63;48.63;;;3.10;93.00;;;;;;5022678;28;20288;-74
2021/11/12 00:54:17;;;;;;;50.90;45.65;;;3.00;92.80;;;;;;5022440;28;20208;-73
2021/11/12 00:56:44;;;;;;;49.58;44.55;;;3.20;92.70;;;;;;5022163;28;20555;-74
2021/11/12 00:59:11;;;;;;;52.55;47.55;;;3.20;92.50;;;;;;5027084;28;20210;-75
2021/11/12 01:01:39;;;;;;;51.88;46.97;;;3.20;92.10;;;;;;5026098;28;20210;-73
2021/11/12 01:04:10;;;;;;;53.55;48.15;;;3.20;92.20;;;;;;5026838;28;20255;-73
2021/11/12 01:06:38;;;;;;;52.83;47.83;;;3.20;92.30;;;;;;5025841;28;20314;-73
2021/11/12 01:09:09;;;;;;;51.08;45.97;;;3.10;92.70;;;;;;5029298;28;20547;-75
2021/11/12 01:11:37;;;;;;;55.92;49.10;;;3.10;93.40;;;;;;5023059;28;20256;-75
2021/11/12 01:14:05;;;;;;;53.38;48.15;;;3.10;94.30;;;;;;5026743;28;20741;-73
2021/11/12 01:16:32;;;;;;;1999.82;362.98;;;3.20;97.70;;;;;;5026566;28;20754;-73
2021/11/12 01:18:59;;;;;;;1999.90;375.48;;;3.30;98.20;;;;;;5027241;28;20555;-74
2021/11/12 01:21:26;;;;;;;433.50;87.03;;;3.30;98.20;;;;;;5026039;28;20712;-72
2021/11/12 01:23:55;;;;;;;49.53;44.58;;;3.40;97.20;;;;;;5026081;28;20356;-72
2021/11/12 01:26:25;;;;;;;1999.90;564.03;;;3.40;97.10;;;;;;5025845;28;20223;-72
2021/11/12 01:28:53;;;;;;;51.83;46.38;;;3.30;97.90;;;;;;5027284;28;20197;-72
2021/11/12 01:31:22;;;;;;;51.22;45.88;;;3.50;96.50;;;;;;5026304;28;20189;-71
2021/11/12 01:33:49;;;;;;;51.30;46.47;;;3.40;94.60;;;;;;5029645;28;20252;-71
2021/11/12 01:36:27;;;;;;;50.55;45.25;;;3.30;93.70;;;;;;5025051;28;20196;-71
2021/11/12 01:38:57;;;;;;;52.78;47.28;;;3.30;93.70;;;;;;5026616;28;20292;-72
2021/11/12 01:41:26;;;;;;;50.95;45.80;;;3.20;94.10;;;;;;5019688;28;20650;-72
2021/11/12 01:43:54;;;;;;;53.15;47.85;;;3.30;93.60;;;;;;5025010;28;20232;-72
2021/11/12 01:46:27;;;;;;;53.47;47.80;;;3.20;92.80;;;;;;5019095;28;20311;-72
2021/11/12 01:49:15;;;;;;;51.63;46.60;;;3.10;93.10;;;;;;5028273;28;20201;-72
2021/11/12 01:51:47;;;;;;;55.63;49.97;;;3.10;93.00;;;;;;5027554;28;20304;-71
2021/11/12 01:59:47;;;;;;;54.13;48.88;;;3.00;93.70;;;;;;5016760;28;20462;-71
2021/11/12 02:02:14;;;;;;;54.42;49.33;;;3.00;94.10;;;;;;5025897;28;20422;-74
2021/11/12 02:04:41;;;;;;;52.15;46.95;;;3.10;94.10;;;;;;5026315;28;20720;-73
2021/11/12 02:07:07;;;;;;;277.45;69.65;;;3.20;93.90;;;;;;5024943;28;20223;-75
2021/11/12 02:09:36;;;;;;;52.55;47.45;;;3.20;93.70;;;;;;5025683;28;20200;-73
2021/11/12 02:12:11;;;;;;;774.97;135.90;;;3.20;95.00;;;;;;5029137;28;20207;-73
2021/11/12 02:14:39;;;;;;;1680.05;240.70;;;3.30;94.60;;;;;;5029700;28;20215;-73
2021/11/12 02:17:10;;;;;;;56.25;50.20;;;3.30;96.20;;;;;;5029354;28;20532;-74
2021/11/12 02:19:37;;;;;;;50.55;45.60;;;3.30;96.80;;;;;;5030157;28;20618;-74
2021/11/12 02:22:09;;;;;;;47.20;42.88;;;3.40;95.80;;;;;;5027802;28;20203;-74
2021/11/12 02:24:40;;;;;;;48.90;44.25;;;3.40;94.70;;;;;;5029411;28;20198;-72
2021/11/12 02:27:10;;;;;;;45.88;41.78;;;3.40;93.40;;;;;;5029583;28;20225;-72
2021/11/12 02:29:42;;;;;;;44.60;40.63;;;3.30;91.90;;;;;;5031554;28;20205;-71
2021/11/12 02:32:18;;;;;;;47.63;43.47;;;3.10;91.90;;;;;;5031446;28;20197;-75
2021/11/12 02:34:47;;;;;;;48.78;44.38;;;3.10;92.00;;;;;;5026806;28;20224;-75
2021/11/12 02:37:16;;;;;;;46.65;42.60;;;3.00;92.10;;;;;;5031065;28;20383;-73
2021/11/12 02:39:43;;;;;;;47.13;42.53;;;3.00;92.60;;;;;;5030645;28;20247;-73
2021/11/12 02:42:12;;;;;;;48.45;43.88;;;3.00;92.30;;;;;;5030975;28;20576;-74
2021/11/12 02:44:39;;;;;;;45.28;41.38;;;2.90;92.60;;;;;;5028651;28;20193;-74
2021/11/12 02:47:06;;;;;;;47.08;42.85;;;3.00;92.70;;;;;;5023463;28;20694;-73
2021/11/12 02:49:33;;;;;;;45.92;41.80;;;3.10;91.60;;;;;;5029959;28;20199;-74
2021/11/12 02:52:00;;;;;;;47.88;43.35;;;3.10;91.80;;;;;;5018832;28;20201;-73
2021/11/12 02:54:28;;;;;;;46.72;42.42;;;3.00;91.60;;;;;;5020049;28;20204;-73
2021/11/12 02:56:58;;;;;;;46.72;42.63;;;3.10;91.80;;;;;;5027972;28;20202;-74
2021/11/12 02:59:26;;;;;;;46.45;42.33;;;3.10;91.50;;;;;;5029449;28;20675;-71
2021/11/12 03:01:54;;;;;;;43.42;39.63;;;3.10;91.00;;;;;;5025307;28;20201;-71
2021/11/12 03:04:21;;;;;;;46.20;42.10;;;3.00;90.70;;;;;;5029639;28;20197;-71
2021/11/12 03:06:49;;;;;;;44.17;40.33;;;3.00;91.40;;;;;;5027028;28;20228;-72
2021/11/12 03:09:16;;;;;;;46.92;42.63;;;3.00;91.20;;;;;;5029759;28;20204;-72
2021/11/12 03:11:45;;;;;;;44.45;40.42;;;3.10;90.80;;;;;;5028703;28;20208;-72
2021/11/12 03:14:14;;;;;;;43.00;39.65;;;2.90;90.10;;;;;;5028438;28;20755;-72
2021/11/12 03:16:41;;;;;;;40.72;37.28;;;2.60;90.20;;;;;;5027045;28;20590;-71
2021/11/12 03:19:10;;;;;;;41.90;38.45;;;2.70;90.70;;;;;;5030823;28;20211;-72
2021/11/12 03:21:38;;;;;;;42.22;38.70;;;2.80;89.60;;;;;;5028423;28;20740;-72
2021/11/12 03:24:09;;;;;;;43.70;39.90;;;2.80;89.70;;;;;;5027819;28;20322;-72
2021/11/12 03:26:41;;;;;;;44.15;40.22;;;2.80;89.80;;;;;;5029030;28;20196;-72
2021/11/12 04:02:26;;;;;;;48.35;43.95;;;2.60;91.00;;;;;;5028119;28;20230;-71
2021/11/12 04:05:09;;;;;;;50.55;45.15;;;2.60;91.50;;;;;;5027643;28;20570;-72
2021/11/12 04:17:05;;;;;;;48.53;43.83;;;2.60;91.80;;;;;;5027444;28;20216;-71
2021/11/12 04:18:49;;;;;;;49.90;45.10;;;2.60;93.40;;;;;;5028676;28;21201;-72
2021/11/12 05:10:43;;;;;;;57.13;51.35;;;3.00;97.00;;;;;;5025935;28;20211;-74
2021/11/12 05:13:34;;;;;;;53.17;47.70;;;3.10;96.10;;;;;;5026672;28;20227;-73
2021/11/12 05:43:53;;;;;;;52.70;47.30;;;2.90;92.30;;;;;;5023534;28;20242;-74
2021/11/12 05:46:25;;;;;;;53.03;47.80;;;2.80;92.10;;;;;;5022394;28;20199;-73
2021/11/12 05:51:55;;;;;;;50.15;45.30;;;2.60;92.40;;;;;;5030586;28;20516;-73
2021/11/12 05:57:08;;;;;;;48.55;43.78;;;2.70;92.70;;;;;;5029806;28;20278;-73
2021/11/12 05:59:38;;;;;;;51.47;46.65;;;2.70;92.30;;;;;;5029388;28;20200;-73
2021/11/12 06:02:05;;;;;;;50.90;46.28;;;2.80;92.20;;;;;;5030048;28;20653;-73
2021/11/12 06:04:32;;;;;;;49.08;44.45;;;2.80;91.50;;;;;;5030106;28;20227;-74
2021/11/12 06:07:00;;;;;;;51.55;46.45;;;2.80;91.00;;;;;;5028766;28;20201;-74
2021/11/12 06:09:27;;;;;;;48.40;43.88;;;2.70;91.40;;;;;;5032343;28;20195;-73
2021/11/12 06:11:54;;;;;;;51.28;46.20;;;2.60;91.80;;;;;;5031597;28;20299;-74
2021/11/12 06:14:23;;;;;;;49.47;44.97;;;2.60;91.80;;;;;;5026718;28;20366;-74
2021/11/12 06:16:51;;;;;;;52.65;47.72;;;2.50;91.80;;;;;;5030224;28;20300;-74
2021/11/12 06:19:18;;;;;;;50.83;46.33;;;2.40;92.70;;;;;;5030243;28;20201;-73
2021/11/12 06:21:45;;;;;;;49.28;44.83;;;2.40;93.20;;;;;;5019285;28;20196;-73
2021/11/12 06:24:13;;;;;;;47.83;43.25;;;2.60;93.10;;;;;;5030136;28;20231;-73
2021/11/12 06:26:40;;;;;;;49.13;44.33;;;2.70;92.40;;;;;;5029296;28;20200;-73
2021/11/12 06:29:08;;;;;;;47.67;43.17;;;2.70;91.90;;;;;;5020937;28;20242;-73
2021/11/12 06:31:36;;;;;;;48.70;44.10;;;2.80;90.90;;;;;;5029421;28;20292;-73
2021/11/12 06:34:04;;;;;;;49.83;45.22;;;2.80;90.30;;;;;;5028288;28;20271;-72
2021/11/12 06:36:31;;;;;;;49.22;44.72;;;2.70;90.40;;;;;;5028149;28;20214;-75
2021/11/12 06:38:58;;;;;;;55.05;49.85;;;2.60;91.20;;;;;;5028332;28;20832;-78
2021/11/12 06:41:39;;;;;;;51.22;46.22;;;2.70;91.60;;;;;;5023355;28;20280;-74
2021/11/12 06:44:24;;;;;;;52.83;47.58;;;2.70;91.60;;;;;;5023781;28;20242;-73
2021/11/12 06:49:49;;;;;;;55.08;49.47;;;2.70;91.70;;;;;;5031057;28;20334;-72
2021/11/12 06:52:17;;;;;;;57.65;51.65;;;2.60;92.50;;;;;;5014383;28;20309;-73
2021/11/12 06:54:45;;;;;;;52.00;46.95;;;2.70;92.80;;;;;;5029880;28;20279;-72
2021/11/12 06:57:20;;;;;;;55.10;49.50;;;2.80;92.40;;;;;;5030663;28;20228;-73
2021/11/12 06:59:48;;;;;;;51.00;46.17;;;2.80;92.20;;;;;;5031422;28;20203;-74
2021/11/12 07:02:18;;;;;;;52.58;47.85;;;2.80;91.70;;;;;;5029826;28;20274;-72
2021/11/12 07:04:45;;;;;;;51.95;47.15;;;2.90;91.30;;;;;;5026133;28;20254;-73
2021/11/12 07:07:12;;;;;;;53.05;48.10;;;2.80;91.30;;;;;;5025452;28;20308;-74
2021/11/12 07:09:40;;;;;;;50.72;45.92;;;2.70;91.40;;;;;;5026439;28;20285;-73
2021/11/12 07:12:08;;;;;;;50.95;46.15;;;2.60;91.60;;;;;;5029079;28;20206;-76
2021/11/12 07:14:35;;;;;;;51.60;46.90;;;2.50;92.10;;;;;;5028867;28;20203;-73
2021/11/12 07:17:03;;;;;;;52.20;47.17;;;2.30;92.80;;;;;;5029029;28;20295;-73
2021/11/12 07:19:31;;;;;;;53.83;48.67;;;2.30;93.20;;;;;;5029862;28;20195;-78
2021/11/12 07:21:58;;;;;;;52.55;47.47;;;2.40;93.80;;;;;;5028645;28;20259;-70
2021/11/12 07:24:25;;;;;;;54.97;49.70;;;2.50;93.90;;;;;;5020820;28;20731;-71
2021/11/12 07:26:52;;;;;;;53.33;48.47;;;2.60;93.70;;;;;;5021536;28;20688;-71
2021/11/12 07:29:21;;;;;;;52.28;47.28;;;2.70;93.70;;;;;;5018246;28;20295;-73
2021/11/12 07:31:48;;;;;;;54.05;48.45;;;2.90;93.00;;;;;;5018032;28;20196;-75
2021/11/12 07:34:15;;;;;;;49.28;44.42;;;2.90;92.60;;;;;;5026535;28;20406;-74
2021/11/12 07:36:47;;;;;;;52.92;48.08;;;2.90;92.10;;;;;;5020985;28;20202;-74
2021/11/12 07:39:19;;;;;;;52.90;47.20;;;3.00;91.80;;;;;;5021762;28;20685;-76
2021/11/12 07:44:51;;;;;;;86.55;48.05;;;2.90;92.70;;;;;;5010097;28;20215;-77
2021/11/12 07:47:19;;;;;;;57.80;52.15;;;2.90;92.40;;;;;;5021625;28;20256;-73
2021/11/12 07:49:49;;;;;;;56.72;51.15;;;2.70;94.50;;;;;;5017173;28;20219;-76
2021/11/12 07:52:19;;;;;;;52.78;47.85;;;2.70;94.20;;;;;;5024542;28;20315;-73
2021/11/12 07:54:47;;;;;;;49.15;44.63;;;2.80;95.00;;;;;;5021614;28;20277;-73
2021/11/12 07:57:15;;;;;;;50.72;46.03;;;2.90;93.70;;;;;;5022678;28;20211;-74
2021/11/12 07:59:42;;;;;;;49.17;44.95;;;2.80;93.20;;;;;;5023355;28;20295;-74
2021/11/12 08:02:11;;;;;;;47.65;43.35;;;2.80;92.80;;;;;;5024436;28;20206;-74
2021/11/12 08:04:38;;;;;;;50.35;45.65;;;3.00;92.50;;;;;;5021313;28;20208;-73
2021/11/12 08:07:05;;;;;;;49.53;44.70;;;3.10;92.00;;;;;;5026326;28;20634;-74
2021/11/12 08:09:36;;;;;;;50.45;45.85;;;3.00;91.40;;;;;;5021474;28;20219;-78
2021/11/12 08:15:11;;;;;;;48.22;43.65;;;2.90;91.40;;;;;;5020047;28;20704;-72
2021/11/12 08:17:44;;;;;;;46.90;42.70;;;2.90;92.30;;;;;;5022964;28;20196;-73
2021/11/12 08:20:20;;;;;;;47.03;42.95;;;3.10;91.50;;;;;;5020783;28;20192;-73
2021/11/12 08:22:54;;;;;;;49.35;44.85;;;3.10;90.70;;;;;;5020948;28;20263;-77
2021/11/12 08:25:26;;;;;;;50.95;46.60;;;3.10;91.20;;;;;;5024028;28;20579;-75
2021/11/12 08:28:03;;;;;;;47.42;43.25;;;3.20;91.30;;;;;;5021958;28;20228;-75
2021/11/12 08:33:37;;;;;;;48.67;44.20;;;3.30;90.60;;;;;;4980949;28;20221;-71
2021/11/12 08:36:19;;;;;;;48.35;44.15;;;3.30;90.20;;;;;;4978865;28;20679;-72
2021/11/12 08:38:56;;;;;;;46.78;42.97;;;3.40;90.60;;;;;;5005544;28;20193;-71
2021/11/12 08:41:28;;;;;;;48.10;43.90;;;3.40;90.40;;;;;;5016219;28;20197;-72
2021/11/12 08:43:58;;;;;;;48.58;44.30;;;3.40;90.20;;;;;;5021692;28;20238;-72
2021/11/12 08:46:32;;;;;;;630.45;109.68;;;3.40;90.40;;;;;;5023432;28;20606;-71
2021/11/12 08:49:01;;;;;;;51.80;46.70;;;3.60;93.00;;;;;;5023474;28;20782;-72
2021/11/12 08:51:33;;;;;;;50.03;45.42;;;3.80;93.30;;;;;;5027446;28;20198;-74
2021/11/12 08:54:01;;;;;;;48.63;44.42;;;4.00;91.30;;;;;;5025438;28;20227;-73
2021/11/12 08:56:30;;;;;;;50.45;46.25;;;4.20;90.10;;;;;;5021048;28;20689;-74
2021/11/12 08:58:57;;;;;;;718.75;108.90;;;4.30;89.20;;;;;;5017557;28;20204;-74
2021/11/12 09:01:25;;;;;;;49.03;43.72;;;4.50;92.20;;;;;;5026846;28;20561;-76
2021/11/12 09:03:54;;;;;;;49.15;44.53;;;4.50;90.50;;;;;;5020422;28;20209;-75
2021/11/12 09:06:21;;;;;;;48.30;43.85;;;4.80;89.60;;;;;;5025704;28;20292;-77
2021/11/12 09:08:48;;;;;;;47.75;43.42;;;5.00;87.90;;;;;;5023161;28;20214;-74
2021/11/12 09:11:15;;;;;;;48.88;44.33;;;5.20;86.70;;;;;;5020436;28;20205;-74
2021/11/12 09:13:46;;;;;;;48.35;44.05;;;5.20;85.10;;;;;;5026462;28;20224;-73
2021/11/12 09:16:15;;;;;;;46.95;42.95;;;5.20;85.20;;;;;;5025639;28;20281;-75
2021/11/12 09:18:43;;;;;;;47.20;43.10;;;5.30;85.10;;;;;;5022624;28;20193;-71
2021/11/12 09:21:10;;;;;;;47.17;43.33;;;5.50;84.20;;;;;;5016561;28;20199;-71
2021/11/12 09:23:37;;;;;;;47.22;43.03;;;5.60;83.80;;;;;;5025759;28;20227;-72
2021/11/12 09:26:05;;;;;;;48.88;44.63;;;5.70;83.70;;;;;;5026225;28;20713;-71
2021/11/12 09:28:33;;;;;;;47.53;43.28;;;5.50;84.20;;;;;;5027973;28;20217;-72
2021/11/12 09:31:02;;;;;;;48.55;44.08;;;5.70;84.30;;;;;;5017113;28;20663;-72
2021/11/12 09:33:29;;;;;;;48.13;43.83;;;5.60;84.40;;;;;;5027062;28;20304;-71
2021/11/12 09:35:57;;;;;;;47.75;43.67;;;5.80;84.60;;;;;;5019648;28;20667;-72
2021/11/12 09:38:26;;;;;;;48.95;44.60;;;6.00;84.30;;;;;;5028241;28;20197;-71
2021/11/12 09:40:53;;;;;;;47.40;43.42;;;6.00;83.60;;;;;;5026641;28;20714;-71
2021/11/12 09:43:22;;;;;;;49.88;45.28;;;6.00;83.70;;;;;;5023143;28;20213;-71
2021/11/12 09:45:50;;;;;;;48.63;44.08;;;6.20;83.10;;;;;;5026116;28;20749;-72
2021/11/12 09:48:19;;;;;;;50.50;45.97;;;6.30;82.10;;;;;;5027831;28;20225;-71
2021/11/12 09:50:46;;;;;;;49.10;44.58;;;6.20;82.40;;;;;;5026736;28;20193;-72
2021/11/12 09:53:13;;;;;;;50.78;46.03;;;6.10;82.40;;;;;;5027759;28;20231;-71
2021/11/12 09:55:41;;;;;;;50.03;45.42;;;5.90;82.90;;;;;;5022772;28;20190;-72
2021/11/12 09:58:08;;;;;;;51.53;46.53;;;5.90;83.70;;;;;;5023428;28;20310;-72
2021/11/12 10:00:37;;;;;;;52.97;48.22;;;6.20;82.30;;;;;;5028166;28;20202;-71
2021/11/12 10:03:07;;;;;;;48.35;43.70;;;6.20;82.30;;;;;;5022426;28;20217;-71
2021/11/12 10:05:40;;;;;;;52.40;47.45;;;6.10;83.10;;;;;;5023563;28;20288;-75
2021/11/12 10:08:26;;;;;;;50.10;45.53;;;6.20;84.10;;;;;;5029364;28;20198;-71
2021/11/12 10:10:55;;;;;;;49.35;44.80;;;6.40;84.40;;;;;;5021456;28;20205;-73
2021/11/12 10:13:26;;;;;;;52.70;47.83;;;6.50;83.40;;;;;;4983690;28;1164862;-73
2021/11/12 10:16:00;;;;;;;51.22;46.78;;;6.60;81.60;;;;;;5026983;28;20201;-72
2021/11/12 10:18:27;;;;;;;51.13;46.42;;;6.60;81.50;;;;;;5024388;28;20660;-72
2021/11/12 10:21:01;;;;;;;53.63;49.03;;;6.60;81.50;;;;;;5027641;28;20213;-71
2021/11/12 10:23:31;;;;;;;50.80;45.92;;;6.60;81.20;;;;;;5027468;28;20216;-72
2021/11/12 10:26:04;;;;;;;54.47;49.38;;;6.30;81.90;;;;;;5023004;28;20693;-72
2021/11/12 10:28:40;;;;;;;54.20;49.17;;;6.30;82.50;;;;;;5028084;28;20638;-71
2021/11/12 10:31:17;;;;;;;53.63;48.58;;;6.10;83.50;;;;;;5021035;28;20201;-72
2021/11/12 10:33:44;;;;;;;55.00;49.50;;;6.20;83.50;;;;;;5023273;28;20219;-72
2021/11/12 10:36:13;;;;;;;52.95;47.83;;;6.20;83.70;;;;;;5031225;28;20489;-72
2021/11/12 10:38:42;;;;;;;53.75;48.25;;;6.30;83.50;;;;;;5019189;28;20212;-72
2021/11/12 10:41:22;;;;;;;55.08;49.50;;;6.30;83.30;;;;;;5025656;28;20280;-72
2021/11/12 10:43:51;;;;;;;55.22;49.83;;;6.00;84.40;;;;;;5025442;28;20595;-71
2021/11/12 10:46:34;;;;;;;56.05;50.88;;;5.70;85.80;;;;;;5022217;28;20194;-71
2021/11/12 10:49:23;;;;;;;55.03;49.60;;;5.80;86.30;;;;;;5019167;28;20231;-72
2021/11/12 10:51:53;;;;;;;55.05;49.92;;;6.10;86.90;;;;;;5020234;28;20256;-72
2021/11/12 10:54:34;;;;;;;50.63;45.83;;;6.40;87.50;;;;;;5019641;28;20198;-72
2021/11/12 10:57:00;;;;;;;50.55;45.65;;;6.40;84.70;;;;;;5027747;28;20280;-71
2021/11/12 10:59:27;;;;;;;116.38;51.13;;;6.30;84.50;;;;;;5022932;28;20273;-72
2021/11/12 11:01:55;;;;;;;52.03;46.80;;;6.40;84.70;;;;;;5016954;28;20260;-73
2021/11/12 11:04:23;;;;;;;51.42;46.50;;;6.50;86.80;;;;;;5027185;28;20203;-71
2021/11/12 11:06:52;;;;;;;51.15;46.08;;;6.60;85.80;;;;;;5028249;28;20212;-70
2021/11/12 11:09:20;;;;;;;53.10;48.17;;;7.00;84.50;;;;;;5027002;28;20213;-74
2021/11/12 11:11:49;;;;;;;52.78;47.83;;;7.00;81.80;;;;;;5029572;28;20205;-74
2021/11/12 11:14:30;;;;;;;53.05;48.33;;;6.80;82.20;;;;;;5025815;28;20832;-74
2021/11/12 11:16:58;;;;;;;53.13;48.13;;;6.60;82.80;;;;;;5030444;28;20686;-73
2021/11/12 11:19:43;;;;;;;56.13;50.42;;;6.60;82.80;;;;;;5021578;28;20201;-73
2021/11/12 11:22:15;;;;;;;53.42;48.22;;;6.70;82.50;;;;;;5024199;28;20225;-72
2021/11/12 11:24:42;;;;;;;52.50;47.30;;;6.70;83.00;;;;;;5027639;28;20806;-72
2021/11/12 11:27:08;;;;;;;53.03;47.97;;;6.80;84.20;;;;;;5021868;28;20208;-76
2021/11/12 11:29:37;;;;;;;53.78;48.85;;;6.90;83.30;;;;;;5018167;28;20228;-72
2021/11/12 11:32:05;;;;;;;56.97;51.55;;;6.90;82.00;;;;;;5025037;28;20220;-72
2021/11/12 11:34:34;;;;;;;53.40;48.50;;;7.00;81.40;;;;;;5026425;28;20201;-73
2021/11/12 11:37:03;;;;;;;54.85;49.85;;;7.00;81.20;;;;;;5025758;28;20284;-74
2021/11/12 11:39:32;;;;;;;53.25;48.17;;;6.80;82.20;;;;;;5024134;28;20280;-73
2021/11/12 11:42:00;;;;;;;52.72;47.80;;;6.80;82.60;;;;;;5028452;28;20202;-72
2021/11/12 11:44:26;;;;;;;51.25;46.50;;;6.60;84.80;;;;;;5021604;28;20288;-76
2021/11/12 11:46:55;;;;;;;51.33;46.63;;;6.80;84.90;;;;;;5026762;28;20258;-72
2021/11/12 11:49:23;;;;;;;52.17;47.38;;;6.80;84.90;;;;;;5018582;28;20553;-74
2021/11/12 11:51:53;;;;;;;52.10;47.50;;;6.80;84.40;;;;;;5025013;28;20200;-70
2021/11/12 11:54:22;;;;;;;52.00;47.70;;;7.00;83.50;;;;;;5023464;28;20193;-70
2021/11/12 11:56:52;;;;;;;57.08;51.28;;;7.00;82.50;;;;;;5026914;28;20200;-70
2021/11/12 11:59:23;;;;;;;55.05;49.75;;;7.00;82.10;;;;;;5019881;28;20201;-70
2021/11/12 12:01:51;;;;;;;54.25;48.92;;;7.10;82.60;;;;;;5023540;28;20273;-70
2021/11/12 12:04:37;;;;;;;53.38;48.72;;;7.20;82.20;;;;;;5017818;28;20197;-70
2021/11/12 12:07:29;;;;;;;53.50;48.20;;;7.20;82.10;;;;;;5028096;28;20196;-73
2021/11/12 12:10:00;;;;;;;56.33;50.97;;;7.20;81.60;;;;;;5023801;28;20324;-72
2021/11/12 12:12:59;;;;;;;55.70;50.30;;;7.10;82.60;;;;;;5026229;28;20226;-74
2021/11/12 12:15:46;;;;;;;54.35;49.30;;;7.20;82.40;;;;;;5016706;28;20785;-72
2021/11/12 12:18:25;;;;;;;54.38;49.20;;;7.20;81.90;;;;;;5026033;28;20205;-73
2021/11/12 12:31:00;;;;;;;55.28;50.13;;;7.20;83.10;;;;;;5023894;28;20718;-73
2021/11/12 13:22:55;;;;;;;57.80;52.03;;;7.00;84.40;;;;;;5022542;28;20255;-76
2021/11/12 13:25:31;;;;;;;61.03;55.22;;;7.20;84.20;;;;;;5024193;28;20200;-77
2021/11/12 13:28:15;;;;;;;60.22;54.13;;;7.30;83.40;;;;;;5024852;28;20203;-76
2021/11/12 13:30:44;;;;;;;60.30;54.70;;;7.30;83.40;;;;;;5020690;28;20214;-78
2021/11/12 13:33:33;;;;;;;60.90;54.80;;;7.30;83.80;;;;;;5019974;28;20852;-74
2021/11/12 13:36:04;;;;;;;61.63;55.33;;;7.40;84.20;;;;;;5024421;28;20288;-75
2021/11/12 13:38:38;;;;;;;61.95;55.88;;;7.40;83.10;;;;;;5024608;28;20638;-76
2021/11/12 13:41:07;;;;;;;63.50;57.45;;;7.50;83.30;;;;;;5022301;28;20202;-79
2021/11/12 13:43:37;;;;;;;67.63;60.70;;;7.30;83.40;;;;;;5020526;28;20259;-76
2021/11/12 13:46:05;;;;;;;65.07;58.88;;;7.40;83.60;;;;;;5021378;28;21047;-74
2021/11/12 13:48:46;;;;;;;63.22;57.05;;;7.40;83.70;;;;;;5024606;28;20575;-74
2021/11/12 13:51:16;;;;;;;61.78;55.28;;;7.50;83.30;;;;;;5025786;28;20220;-76
2021/11/12 13:53:48;;;;;;;64.47;57.42;;;7.40;83.60;;;;;;5021388;28;20339;-75
2021/11/12 13:56:15;;;;;;;64.35;57.65;;;7.20;85.00;;;;;;5023462;28;20199;-73
2021/11/12 13:58:43;;;;;;;61.60;55.15;;;7.20;84.70;;;;;;5016505;28;20681;-72
2021/11/12 14:01:23;;;;;;;63.30;56.97;;;7.10;84.80;;;;;;5018190;28;20212;-75
2021/11/12 14:03:51;;;;;;;64.72;57.65;;;7.10;84.90;;;;;;5018640;28;20312;-74
2021/11/12 14:06:19;;;;;;;62.33;56.40;;;7.20;84.80;;;;;;5021908;28;20189;-73
2021/11/12 14:08:49;;;;;;;62.78;56.15;;;7.10;84.80;;;;;;5018429;28;20233;-73
2021/11/12 14:11:21;;;;;;;61.47;55.10;;;6.90;86.50;;;;;;5019095;28;20308;-75
2021/11/12 14:13:56;;;;;;;60.55;54.15;;;6.70;87.10;;;;;;5026020;28;20222;-72
2021/11/12 14:16:33;;;;;;;60.60;54.35;;;6.70;87.20;;;;;;5024211;28;20972;-71
2021/11/12 14:19:23;;;;;;;60.17;54.00;;;6.80;87.70;;;;;;5028242;28;20204;-71
2021/11/12 14:21:54;;;;;;;64.10;53.38;;;6.80;86.80;;;;;;5027447;28;20659;-70
2021/11/12 14:24:35;;;;;;;60.92;54.17;;;7.00;87.00;;;;;;5028143;28;20205;-71
2021/11/12 14:27:07;;;;;;;63.08;57.05;;;7.00;86.30;;;;;;5029244;28;20585;-70
2021/11/12 14:29:42;;;;;;;63.78;57.28;;;6.80;86.90;;;;;;5028770;28;20593;-70
2021/11/12 14:32:32;;;;;;;62.88;56.92;;;6.80;87.50;;;;;;5026827;28;20941;-71
2021/11/12 14:35:08;;;;;;;62.58;56.47;;;6.80;87.50;;;;;;5025142;28;20271;-70
2021/11/12 14:37:48;;;;;;;65.80;57.85;;;6.60;88.40;;;;;;5030252;28;20551;-71
2021/11/12 14:40:21;;;;;;;61.33;55.20;;;6.40;89.50;;;;;;5026796;28;20629;-70
2021/11/12 14:43:04;;;;;;;61.42;55.22;;;6.20;90.50;;;;;;5026481;28;20217;-70
2021/11/12 14:45:33;;;;;;;61.85;55.22;;;5.90;91.40;;;;;;5024930;28;20207;-70
2021/11/12 14:48:14;;;;;;;63.63;55.28;;;5.70;92.30;;;;;;5028417;28;20267;-72
2021/11/12 14:50:46;;;;;;;65.82;57.17;;;5.70;93.00;;;;;;5029349;28;20220;-71
2021/11/12 14:53:24;;;;;;;60.60;54.25;;;5.60;93.10;;;;;;5030581;28;20319;-71
2021/11/12 14:56:00;;;;;;;59.08;52.95;;;5.50;93.30;;;;;;5018614;28;20197;-71
2021/11/12 14:58:28;;;;;;;59.70;53.20;;;5.30;94.30;;;;;;5028322;28;20193;-71
2021/11/12 15:01:07;;;;;;;60.45;54.20;;;5.20;94.30;;;;;;5025905;28;20594;-71
2021/11/12 15:03:35;;;;;;;59.47;53.05;;;5.00;94.80;;;;;;5027771;28;20737;-71
2021/11/12 15:06:02;;;;;;;60.00;53.40;;;5.00;95.20;;;;;;5029301;28;20347;-70
2021/11/12 15:08:30;;;;;;;56.63;50.28;;;5.00;95.40;;;;;;5028230;28;20205;-70
2021/11/12 15:11:02;;;;;;;56.25;50.25;;;4.90;95.10;;;;;;5029644;28;20865;-71
2021/11/12 15:13:32;;;;;;;55.60;49.75;;;4.80;94.70;;;;;;5027819;28;20221;-71
2021/11/12 15:16:02;;;;;;;56.13;50.17;;;4.60;95.90;;;;;;5029481;28;20570;-71
2021/11/12 15:18:29;;;;;;;54.03;48.30;;;4.50;95.80;;;;;;5026527;28;20205;-70
2021/11/12 15:20:58;;;;;;;53.28;47.67;;;4.40;96.90;;;;;;5024426;28;20189;-71
2021/11/12 15:23:45;;;;;;;54.72;49.08;;;4.30;96.80;;;;;;5022051;28;20224;-71
2021/11/12 15:26:24;;;;;;;55.40;49.40;;;4.30;96.70;;;;;;5023708;28;20196;-73
2021/11/12 15:28:56;;;;;;;56.22;50.30;;;4.20;97.20;;;;;;5024806;28;20262;-75
2021/11/12 15:31:24;;;;;;;57.67;51.38;;;4.40;97.30;;;;;;5028886;28;20228;-72
2021/11/12 15:33:58;;;;;;;55.35;49.30;;;4.50;96.30;;;;;;5028295;28;20726;-73
2021/11/12 15:36:26;;;;;;;56.00;50.00;;;4.30;96.80;;;;;;5029675;28;20208;-72
2021/11/12 15:38:56;;;;;;;54.72;48.80;;;4.30;97.00;;;;;;5027651;28;20255;-73
2021/11/12 15:44:12;;;;;;;53.60;48.00;;;4.60;96.10;;;;;;5002400;28;20295;-72
2021/11/12 15:46:43;;;;;;;56.22;50.40;;;4.60;95.90;;;;;;5027488;28;20670;-73
2021/11/12 15:49:10;;;;;;;56.47;47.78;;;4.60;95.90;;;;;;5024408;28;20200;-71
2021/11/12 15:51:40;;;;;;;56.70;50.58;;;4.60;95.60;;;;;;5028991;28;20234;-71
2021/11/12 15:59:51;;;;;;;52.17;46.67;;;4.50;95.70;;;;;;5015501;28;20208;-70
2021/11/12 16:02:46;;;;;;;55.83;49.97;;;4.50;95.80;;;;;;5028120;28;20225;-71
2021/11/12 16:08:08;;;;;;;55.95;49.78;;;4.40;96.00;;;;;;5018393;28;20709;-72
2021/11/12 16:13:38;;;;;;;57.95;51.65;;;4.30;96.30;;;;;;4984089;28;20223;-73
2021/11/12 16:18:56;;;;;;;64.30;51.00;;;4.30;96.60;;;;;;5001618;28;20239;-73
2021/11/12 16:24:23;;;;;;;64.97;48.78;;;4.30;96.50;;;;;;5021495;28;20356;-73
2021/11/12 16:26:54;;;;;;;71.03;50.92;;;4.20;96.40;;;;;;5017188;28;20208;-73
2021/11/12 16:32:10;;;;;;;70.68;51.90;;;4.00;97.30;;;;;;5022570;28;20218;-72
2021/11/12 16:34:43;;;;;;;59.47;50.38;;;4.10;97.70;;;;;;5024227;28;20198;-73
2021/11/12 16:37:11;;;;;;;60.13;51.33;;;4.10;97.40;;;;;;5028757;28;20658;-73
2021/11/12 16:39:44;;;;;;;56.65;50.63;;;4.20;97.70;;;;;;5022831;28;20236;-73
2021/11/12 16:42:20;;;;;;;57.00;50.55;;;4.20;97.60;;;;;;5027057;28;20200;-72
2021/11/12 16:44:55;;;;;;;60.70;50.65;;;4.30;97.50;;;;;;5011162;28;20246;-73
2021/11/12 16:50:26;;;;;;;66.07;54.55;;;4.40;97.40;;;;;;5020782;28;20306;-71
2021/11/12 16:53:06;;;;;;;60.80;51.55;;;4.50;97.30;;;;;;5021495;28;20224;-70